createdAt,value
2022-11-15T00:01:28.669Z,41.80
2022-11-15T00:03:55.176Z,45.15
2022-11-15T00:06:21.826Z,45.12
2022-11-15T00:08:48.383Z,43.60
2022-11-15T00:11:15.011Z,60.92
2022-11-15T00:13:41.663Z,38.95
2022-11-15T00:16:09.894Z,38.28
2022-11-15T00:18:36.398Z,44.10
2022-11-15T00:21:09.122Z,40.25
2022-11-15T00:23:35.844Z,36.90
2022-11-15T00:26:02.779Z,36.30
2022-11-15T00:28:29.317Z,37.85
2022-11-15T00:31:02.036Z,40.40
2022-11-15T00:33:28.888Z,40.33
2022-11-15T00:36:05.477Z,35.75
2022-11-15T00:38:36.325Z,43.83
2022-11-15T00:41:09.045Z,40.33
2022-11-15T00:43:36.069Z,38.60
2022-11-15T00:46:03.323Z,35.90
2022-11-15T00:48:30.337Z,37.80
2022-11-15T00:50:56.873Z,39.08
2022-11-15T00:53:23.418Z,41.78
2022-11-15T00:55:49.938Z,38.95
2022-11-15T00:58:22.527Z,36.17
2022-11-15T01:00:50.283Z,38.58
2022-11-15T01:03:16.916Z,34.95
2022-11-15T01:05:43.564Z,35.88
2022-11-15T01:08:17.638Z,34.33
2022-11-15T01:25:19.627Z,30.20
2022-11-15T01:28:01.361Z,31.55
2022-11-15T01:30:28.169Z,28.50
2022-11-15T01:32:54.714Z,29.42
2022-11-15T01:35:21.839Z,28.40
2022-11-15T01:37:48.361Z,27.00
2022-11-15T01:40:15.277Z,28.15
2022-11-15T01:45:30.407Z,26.73
2022-11-15T01:47:57.034Z,29.83
2022-11-15T01:50:30.671Z,27.45
2022-11-15T01:56:42.203Z,26.08
2022-11-15T01:59:10.696Z,25.70
2022-11-15T02:01:37.891Z,26.83
2022-11-15T02:04:27.123Z,27.02
2022-11-15T02:06:54.280Z,24.02
2022-11-15T02:09:21.051Z,25.52
2022-11-15T02:12:02.688Z,25.10
2022-11-15T02:14:30.933Z,25.02
2022-11-15T02:19:42.371Z,23.92
2022-11-15T02:25:28.120Z,24.80
2022-11-15T02:28:14.368Z,23.75
2022-11-15T02:30:58.263Z,23.35
2022-11-15T02:33:50.215Z,25.48
2022-11-15T02:36:36.414Z,24.67
2022-11-15T02:39:41.314Z,24.73
2022-11-15T02:50:05.433Z,23.73
2022-11-15T02:56:00.272Z,21.67
2022-11-15T02:58:53.546Z,24.58
2022-11-15T03:01:40.859Z,24.25
2022-11-15T03:04:29.187Z,21.37
2022-11-15T03:07:08.533Z,23.12
2022-11-15T03:10:11.753Z,24.85
2022-11-15T03:28:43.446Z,20.77
2022-11-15T03:31:32.533Z,21.42
2022-11-15T03:34:01.169Z,22.35
2022-11-15T03:36:28.248Z,22.40
2022-11-15T03:39:00.838Z,24.00
2022-11-15T03:41:37.130Z,24.58
2022-11-15T03:44:31.527Z,24.35
2022-11-15T03:47:10.957Z,22.65
2022-11-15T03:49:44.057Z,21.55
2022-11-15T03:52:12.017Z,25.12
2022-11-15T03:54:49.183Z,27.67
2022-11-15T03:57:34.242Z,25.67
2022-11-15T04:00:00.870Z,25.17
2022-11-15T04:02:27.452Z,27.33
2022-11-15T04:04:53.981Z,27.65
2022-11-15T04:08:07.238Z,26.33
2022-11-15T04:10:52.764Z,25.83
2022-11-15T04:18:29.817Z,25.37
2022-11-15T04:21:14.914Z,25.60
2022-11-15T04:39:49.355Z,21.30
2022-11-15T04:48:07.394Z,21.02
2022-11-15T04:50:33.940Z,21.25
2022-11-15T04:53:00.634Z,21.23
2022-11-15T04:55:27.301Z,21.87
2022-11-15T04:58:01.139Z,22.90
2022-11-15T05:00:29.443Z,20.90
2022-11-15T05:03:15.717Z,21.17
2022-11-15T05:05:42.833Z,23.95
2022-11-15T05:08:09.378Z,22.30
2022-11-15T05:10:57.677Z,20.50
2022-11-15T05:13:24.234Z,21.67
2022-11-15T05:15:51.024Z,19.42
2022-11-15T05:18:23.283Z,21.85
2022-11-15T05:21:51.948Z,21.58
2022-11-15T05:24:56.411Z,21.50
2022-11-15T05:27:23.481Z,22.48
2022-11-15T05:37:55.590Z,24.20
2022-11-15T05:40:22.537Z,22.05
2022-11-15T05:42:49.311Z,21.12
2022-11-15T05:45:16.340Z,24.12
2022-11-15T05:47:43.577Z,22.90
2022-11-15T05:50:15.005Z,23.23
2022-11-15T05:52:42.100Z,21.45
2022-11-15T05:55:09.906Z,23.48
2022-11-15T05:57:36.897Z,25.98
2022-11-15T06:00:05.283Z,23.52
2022-11-15T06:02:32.100Z,25.85
2022-11-15T06:04:58.994Z,27.70
2022-11-15T06:07:25.787Z,28.10
2022-11-15T06:09:52.428Z,27.35
2022-11-15T06:12:18.960Z,26.15
2022-11-15T06:14:45.488Z,28.48
2022-11-15T06:17:12.027Z,25.95
2022-11-15T06:19:38.620Z,29.42
2022-11-15T06:22:05.359Z,27.92
2022-11-15T06:24:31.953Z,28.12
2022-11-15T06:26:58.695Z,27.52
2022-11-15T06:29:25.446Z,27.95
2022-11-15T06:31:51.998Z,28.17
2022-11-15T06:34:18.705Z,28.77
2022-11-15T06:39:33.538Z,30.75
2022-11-15T06:42:00.073Z,29.63
2022-11-15T06:44:26.597Z,28.83
2022-11-15T06:46:53.396Z,28.45
2022-11-15T06:49:19.954Z,30.15
2022-11-15T06:51:46.561Z,33.78
2022-11-15T06:54:13.169Z,28.42
2022-11-15T06:56:39.707Z,30.15
2022-11-15T06:59:06.363Z,31.02
2022-11-15T07:01:32.983Z,28.75
2022-11-15T07:06:41.578Z,31.37
2022-11-15T07:09:08.102Z,33.28
2022-11-15T07:11:34.663Z,31.37
2022-11-15T07:14:01.498Z,32.28
2022-11-15T07:16:28.064Z,29.87
2022-11-15T07:18:54.768Z,30.92
2022-11-15T07:21:26.248Z,30.98
2022-11-15T07:23:54.143Z,28.30
2022-11-15T07:26:21.804Z,31.85
2022-11-15T07:28:48.510Z,28.52
2022-11-15T07:33:56.517Z,30.85
2022-11-15T07:36:23.090Z,31.50
2022-11-15T07:44:00.146Z,34.75
2022-11-15T07:46:26.736Z,30.73
2022-11-15T07:48:53.288Z,33.28
2022-11-15T07:51:57.406Z,32.00
2022-11-15T07:54:37.215Z,29.42
2022-11-15T07:57:07.584Z,34.28
2022-11-15T07:59:35.706Z,34.78
2022-11-15T08:02:02.892Z,29.92
2022-11-15T08:04:29.540Z,32.67
2022-11-15T08:06:56.516Z,36.08
2022-11-15T08:09:23.100Z,34.55
2022-11-15T08:11:49.656Z,33.95
2022-11-15T08:14:16.186Z,36.35
2022-11-15T08:16:42.773Z,34.10
2022-11-15T08:19:09.272Z,32.30
2022-11-15T08:21:36.213Z,34.03
2022-11-15T08:24:02.731Z,34.00
2022-11-15T08:26:31.023Z,32.10
2022-11-15T08:28:57.819Z,35.30
2022-11-15T08:31:24.435Z,36.70
2022-11-15T08:33:51.070Z,33.97
2022-11-15T08:36:21.146Z,35.40
2022-11-15T08:38:49.815Z,38.25
2022-11-15T08:41:27.663Z,36.85
2022-11-15T08:43:54.228Z,35.60
2022-11-15T08:46:20.751Z,35.15
2022-11-15T08:48:47.379Z,36.67
2022-11-15T08:51:51.515Z,39.13
2022-11-15T08:54:38.207Z,38.95
2022-11-15T08:57:04.766Z,36.67
2022-11-15T08:59:31.855Z,36.60
2022-11-15T09:01:58.569Z,36.47
2022-11-15T09:04:25.676Z,35.65
2022-11-15T09:06:52.365Z,43.17
2022-11-15T09:09:18.904Z,39.03
2022-11-15T09:11:45.510Z,38.30
2022-11-15T09:14:13.576Z,38.00
2022-11-15T09:16:40.262Z,36.28
2022-11-15T09:19:11.646Z,36.28
2022-11-15T09:21:38.598Z,36.55
2022-11-15T09:24:08.116Z,38.58
2022-11-15T09:26:34.633Z,36.30
2022-11-15T09:29:02.564Z,35.75
2022-11-15T09:31:30.468Z,35.00
2022-11-15T09:33:57.017Z,36.78
2022-11-15T09:36:23.621Z,36.30
2022-11-15T09:41:44.094Z,38.53
2022-11-15T09:44:21.134Z,33.15
2022-11-15T09:47:00.006Z,38.20
2022-11-15T09:49:26.968Z,36.00
2022-11-15T09:55:22.419Z,37.25
2022-11-15T09:57:58.523Z,36.65
2022-11-15T10:00:47.204Z,36.20
2022-11-15T10:03:28.528Z,35.92
2022-11-15T10:05:59.067Z,35.50
2022-11-15T10:08:35.810Z,35.40
2022-11-15T10:13:57.296Z,31.37
2022-11-15T10:16:47.399Z,34.40
2022-11-15T10:19:22.979Z,33.50
2022-11-15T10:22:06.955Z,34.95
2022-11-15T10:24:42.932Z,32.60
2022-11-15T10:27:15.710Z,32.05
2022-11-15T10:29:45.579Z,29.02
2022-11-15T10:32:14.258Z,31.90
2022-11-15T10:34:41.276Z,30.30
2022-11-15T10:37:07.805Z,33.80
2022-11-15T10:39:34.833Z,30.73
2022-11-15T10:42:30.071Z,30.23
2022-11-15T10:44:56.600Z,31.87
2022-11-15T10:47:29.026Z,30.73
2022-11-15T10:50:32.644Z,34.15
2022-11-15T10:53:01.624Z,33.42
2022-11-15T10:55:32.059Z,32.28
2022-11-15T10:58:06.745Z,31.58
2022-11-15T11:00:37.869Z,31.87
2022-11-15T11:03:21.703Z,32.83
2022-11-15T11:05:48.243Z,31.40
2022-11-15T11:08:14.718Z,33.05
2022-11-15T11:10:58.591Z,33.95
2022-11-15T11:13:39.992Z,37.53
2022-11-15T11:16:06.448Z,37.13
2022-11-15T11:18:39.960Z,34.28
2022-11-15T11:21:14.341Z,32.25
2022-11-15T11:23:56.364Z,32.20
2022-11-15T11:26:32.900Z,35.00
2022-11-15T11:29:14.479Z,45.40
2022-11-15T11:31:57.042Z,35.38
2022-11-15T11:34:47.926Z,37.80
2022-11-15T11:37:36.631Z,41.25
2022-11-15T11:40:10.874Z,36.45
2022-11-15T11:42:43.472Z,38.35
2022-11-15T11:45:37.530Z,40.50
2022-11-15T11:48:14.795Z,43.13
2022-11-15T11:50:45.639Z,38.42
2022-11-15T11:53:12.238Z,37.65
2022-11-15T12:00:18.751Z,41.22
2022-11-15T12:02:57.197Z,40.17
2022-11-15T12:05:32.751Z,40.45
2022-11-15T12:08:21.338Z,38.30
2022-11-15T12:10:53.167Z,39.40
2022-11-15T12:13:25.484Z,37.15
2022-11-15T12:26:32.786Z,39.17
2022-11-15T12:29:25.382Z,38.17
2022-11-15T12:32:24.491Z,40.93
2022-11-15T12:35:11.217Z,42.10
2022-11-15T12:37:41.538Z,40.50
2022-11-15T12:40:13.862Z,40.63
2022-11-15T12:42:43.567Z,42.35
2022-11-15T12:45:37.863Z,41.25
2022-11-15T12:48:16.360Z,44.28
2022-11-15T12:50:52.601Z,41.05
2022-11-15T12:53:25.353Z,43.17
2022-11-15T12:56:07.349Z,44.60
2022-11-15T12:58:57.308Z,46.65
2022-11-15T13:01:38.834Z,49.95
2022-11-15T13:04:20.466Z,43.47
2022-11-15T13:06:49.814Z,46.92
2022-11-15T13:09:42.136Z,46.90
2022-11-15T13:12:35.298Z,42.70
2022-11-15T13:15:22.890Z,49.13
2022-11-15T13:17:56.794Z,45.15
2022-11-15T13:20:26.266Z,48.13
2022-11-15T13:23:03.263Z,44.10
2022-11-15T13:25:59.822Z,46.10
2022-11-15T13:28:29.553Z,48.28
2022-11-15T13:30:59.401Z,42.10
2022-11-15T13:33:35.997Z,43.65
2022-11-15T13:36:26.527Z,47.60
2022-11-15T13:39:06.371Z,45.05
2022-11-15T13:41:45.940Z,43.58
2022-11-15T13:44:30.840Z,43.63
2022-11-15T13:47:15.096Z,44.88
2022-11-15T13:49:42.463Z,39.38
2022-11-15T13:52:15.151Z,37.55
2022-11-15T13:54:47.200Z,43.50
2022-11-15T13:57:19.059Z,39.73
2022-11-15T13:59:49.602Z,43.10
2022-11-15T14:02:19.144Z,43.22
2022-11-15T14:05:14.226Z,41.60
2022-11-15T14:07:44.451Z,44.50
2022-11-15T14:10:38.520Z,40.53
2022-11-15T14:13:11.389Z,38.67
2022-11-15T14:15:39.687Z,39.70
2022-11-15T14:18:06.927Z,38.10
2022-11-15T14:20:36.923Z,40.75
2022-11-15T14:23:24.901Z,39.25
2022-11-15T14:25:59.304Z,44.35
2022-11-15T14:28:26.179Z,47.25
2022-11-15T14:30:54.977Z,50.40
2022-11-15T14:33:26.292Z,44.45
2022-11-15T14:35:53.879Z,44.33
2022-11-15T14:38:20.449Z,41.42
2022-11-15T14:40:47.531Z,44.25
2022-11-15T14:43:14.548Z,43.22
2022-11-15T14:45:41.975Z,42.28
2022-11-15T14:48:09.030Z,54.42
2022-11-15T14:50:36.400Z,88.03
2022-11-15T14:53:04.214Z,47.05
2022-11-15T14:55:36.080Z,38.55
2022-11-15T14:58:08.976Z,42.08
2022-11-15T15:00:40.346Z,44.83
2022-11-15T15:03:07.835Z,40.67
2022-11-15T15:05:38.319Z,39.72
2022-11-15T15:08:06.184Z,40.40
2022-11-15T15:10:41.371Z,40.53
2022-11-15T15:13:31.312Z,42.00
2022-11-15T15:15:57.862Z,43.28
2022-11-15T15:18:24.400Z,43.70
2022-11-15T15:20:58.342Z,42.60
2022-11-15T15:23:26.600Z,40.53
2022-11-15T15:25:53.799Z,43.53
2022-11-15T15:28:20.338Z,41.80
2022-11-15T15:30:47.181Z,43.13
2022-11-15T15:33:13.718Z,39.53
2022-11-15T15:35:40.581Z,41.13
2022-11-15T15:38:07.115Z,45.03
2022-11-15T15:40:34.286Z,44.38
2022-11-15T15:43:01.101Z,44.90
2022-11-15T15:45:28.593Z,52.53
2022-11-15T15:47:55.400Z,51.37
2022-11-15T15:50:30.726Z,44.38
2022-11-15T15:52:59.804Z,47.90
2022-11-15T15:55:27.231Z,52.33
2022-11-15T15:57:54.001Z,50.63
2022-11-15T16:00:22.159Z,48.90
2022-11-15T16:02:48.771Z,50.63
2022-11-15T16:07:50.771Z,52.67
2022-11-15T16:10:20.299Z,48.92
2022-11-15T16:12:48.116Z,51.55
2022-11-15T16:25:41.067Z,52.78
2022-11-15T16:28:23.935Z,47.22
2022-11-15T16:30:59.987Z,52.08
2022-11-15T16:33:26.539Z,52.28
2022-11-15T16:35:53.223Z,53.97
2022-11-15T16:41:18.987Z,57.30
2022-11-15T16:43:49.063Z,53.22
2022-11-15T16:46:24.518Z,55.05
2022-11-15T16:48:51.866Z,54.92
2022-11-15T16:51:18.456Z,55.42
2022-11-15T16:54:03.335Z,53.35
2022-11-15T16:56:54.722Z,59.38
2022-11-15T16:59:27.467Z,58.40
2022-11-15T17:01:54.054Z,53.10
2022-11-15T17:04:22.638Z,63.83
2022-11-15T17:06:49.416Z,86.22
2022-11-15T17:09:24.634Z,90.60
2022-11-15T17:11:51.885Z,74.25
2022-11-15T17:14:33.653Z,69.12
2022-11-15T17:17:00.728Z,65.70
2022-11-15T17:19:30.472Z,67.68
2022-11-15T17:21:56.977Z,62.47
2022-11-15T17:24:51.483Z,66.03
2022-11-15T17:27:33.411Z,63.90
2022-11-15T17:30:07.373Z,68.00
2022-11-15T17:32:37.387Z,66.28
2022-11-15T17:35:10.656Z,66.90
2022-11-15T17:37:41.807Z,63.78
2022-11-15T17:40:08.899Z,63.40
2022-11-15T17:42:35.498Z,61.35
2022-11-15T17:45:06.730Z,63.53
2022-11-15T17:47:36.754Z,60.50
2022-11-15T17:50:03.768Z,62.13
2022-11-15T17:52:30.316Z,58.67
2022-11-15T17:54:56.860Z,58.97
2022-11-15T17:57:23.419Z,61.25
2022-11-15T17:59:50.323Z,56.53
2022-11-15T18:02:16.887Z,61.50
2022-11-15T18:04:43.527Z,57.60
2022-11-15T18:07:12.127Z,53.70
2022-11-15T18:09:42.273Z,62.70
2022-11-15T18:12:10.139Z,60.25
2022-11-15T18:14:36.802Z,57.20
2022-11-15T18:17:03.380Z,65.20
2022-11-15T18:19:29.923Z,61.10
2022-11-15T18:21:56.640Z,78.00
2022-11-15T18:24:36.687Z,65.25
2022-11-15T18:27:04.971Z,62.17
2022-11-15T18:29:33.373Z,66.80
2022-11-15T18:32:00.266Z,63.40
2022-11-15T18:34:33.458Z,70.15
2022-11-15T18:37:01.376Z,68.95
2022-11-15T18:39:27.979Z,71.57
2022-11-15T18:41:54.592Z,73.47
2022-11-15T18:44:21.161Z,68.15
2022-11-15T18:46:47.796Z,68.53
2022-11-15T18:49:16.684Z,64.37
2022-11-15T18:51:43.862Z,66.72
2022-11-15T18:54:12.113Z,66.70
2022-11-15T18:56:39.397Z,72.60
2022-11-15T18:59:06.396Z,79.47
2022-11-15T19:01:35.382Z,68.43
2022-11-15T19:04:18.450Z,72.70
2022-11-15T19:06:47.909Z,69.00
2022-11-15T19:09:16.616Z,74.22
2022-11-15T19:11:44.995Z,71.82
2022-11-15T19:14:13.946Z,69.57
2022-11-15T19:16:52.552Z,98.80
2022-11-15T19:19:25.177Z,78.28
2022-11-15T19:21:52.612Z,75.20
2022-11-15T19:24:19.587Z,82.03
2022-11-15T19:26:46.511Z,77.87
2022-11-15T19:29:17.234Z,80.70
2022-11-15T19:31:44.406Z,77.70
2022-11-15T19:34:11.221Z,85.25
2022-11-15T19:36:40.444Z,74.25
2022-11-15T19:39:09.914Z,74.55
2022-11-15T19:41:40.867Z,79.57
2022-11-15T19:44:12.151Z,71.65
2022-11-15T19:46:39.668Z,76.07
2022-11-15T19:49:11.024Z,71.75
2022-11-15T19:51:39.040Z,67.72
2022-11-15T19:57:58.769Z,76.30
2022-11-15T20:00:25.377Z,82.07
2022-11-15T20:02:52.098Z,74.45
2022-11-15T20:05:18.726Z,71.87
2022-11-15T20:07:50.410Z,77.68
2022-11-15T20:10:20.693Z,74.97
2022-11-15T20:12:47.459Z,73.57
2022-11-15T20:15:14.089Z,73.45
2022-11-15T20:17:40.620Z,70.47
2022-11-15T20:20:07.813Z,76.03
2022-11-15T20:22:34.508Z,73.32
2022-11-15T20:25:01.049Z,72.32
2022-11-15T20:27:27.595Z,76.35
2022-11-15T20:30:04.867Z,82.25
2022-11-15T20:32:31.782Z,72.43
2022-11-15T20:34:58.335Z,76.93
2022-11-15T20:37:25.203Z,69.03
2022-11-15T20:40:19.232Z,61.20
2022-11-15T20:43:06.118Z,68.55
2022-11-15T20:45:32.867Z,69.93
2022-11-15T20:47:59.534Z,76.50
2022-11-15T20:50:42.061Z,74.00
2022-11-15T20:53:09.995Z,82.30
2022-11-15T20:55:44.659Z,74.80
2022-11-15T21:00:46.679Z,72.22
2022-11-15T21:03:14.547Z,67.53
2022-11-15T21:05:42.706Z,80.05
2022-11-15T21:12:14.698Z,68.72
2022-11-15T21:14:42.523Z,71.05
2022-11-15T21:17:10.681Z,76.15
2022-11-15T21:19:37.310Z,72.78
2022-11-15T21:22:05.313Z,64.50
2022-11-15T21:24:32.061Z,64.40
2022-11-15T21:29:54.134Z,63.05
2022-11-15T21:32:20.783Z,71.57
2022-11-15T21:34:47.332Z,72.47
2022-11-15T21:37:19.306Z,74.68
2022-11-15T21:43:17.449Z,72.28
2022-11-15T21:46:00.127Z,81.75
2022-11-15T21:48:28.048Z,67.93
2022-11-15T21:50:56.523Z,77.43
2022-11-15T21:53:23.101Z,77.05
2022-11-15T21:55:51.889Z,80.65
2022-11-15T21:58:19.177Z,76.78
2022-11-15T22:01:04.225Z,77.90
2022-11-15T22:03:31.113Z,75.57
2022-11-15T22:05:57.905Z,78.20
2022-11-15T22:08:45.134Z,81.68
2022-11-15T22:11:33.663Z,79.78
2022-11-15T22:14:00.608Z,88.18
2022-11-15T22:16:27.155Z,78.72
2022-11-15T22:18:55.044Z,85.62
2022-11-15T22:21:22.059Z,82.47
2022-11-15T22:23:48.833Z,77.97
2022-11-15T22:29:03.765Z,97.93
2022-11-15T22:31:30.445Z,83.93
2022-11-15T22:33:57.048Z,85.25
2022-11-15T22:36:26.226Z,83.95
2022-11-15T22:38:56.957Z,90.12
2022-11-15T22:41:45.414Z,98.87
2022-11-15T22:47:32.450Z,91.90
2022-11-15T22:49:59.074Z,84.13
2022-11-15T22:55:00.935Z,102.65
2022-11-15T22:57:27.589Z,101.22
2022-11-15T23:02:36.435Z,91.40
2022-11-15T23:05:03.841Z,90.72
2022-11-15T23:07:30.953Z,90.90
2022-11-15T23:10:17.562Z,82.60
2022-11-15T23:13:02.703Z,91.35
2022-11-15T23:18:21.711Z,93.35
2022-11-15T23:44:58.401Z,110.20
